SXS9SR LTAI-EDDP
Flight info
| Callsign | SXS9SR |
|---|---|
| Flight time | 3h 7m |
| Altitude | 36000 |
| Route | EKNUD UQ26 BKZ DCT IBLAX DCT RASUB DCT BIVBU DCT BUDOP/N0450F380 DCT LALES DCT BEFRE DCT IVQOQ T951 YAWOY YAWOY1R |
| Aircraft | B738/M-SDE2E3FGHIRWXY/LB1 |
Departure
| Time | 2026-05-07 07:25 |
|---|---|
| Airport | Antalya International Airport (LTAI) |
Arrival
| Time | 2026-05-07 10:32 |
|---|---|
| Airport | Leipzig/Halle Airport (EDDP) |
| Time | Latitude | Longitude | Altitude | Speed | Heading |
|---|---|---|---|---|---|
| 2026-05-07 07:02 | 36.89675 | 30.80132 | 179 ft | 0 kts | 352° |
| 2026-05-07 07:16 | 36.89669 | 30.80134 | 179 ft | 2 kts | 352° |
| 2026-05-07 07:16 | 36.89659 | 30.80136 | 179 ft | 1 kts | 352° |
| 2026-05-07 07:16 | 36.89645 | 30.80140 | 179 ft | 2 kts | 326° |
| 2026-05-07 07:17 | 36.89634 | 30.80153 | 179 ft | 2 kts | 305° |
| 2026-05-07 07:17 | 36.89628 | 30.80169 | 179 ft | 1 kts | 282° |
| 2026-05-07 07:17 | 36.89627 | 30.80177 | 179 ft | 1 kts | 274° |
| 2026-05-07 07:17 | 36.89627 | 30.80181 | 179 ft | 0 kts | 276° |
| 2026-05-07 07:20 | 36.89627 | 30.80178 | 179 ft | 1 kts | 276° |
| 2026-05-07 07:20 | 36.89632 | 30.80133 | 179 ft | 8 kts | 277° |
| 2026-05-07 07:20 | 36.89641 | 30.80027 | 177 ft | 15 kts | 275° |
| 2026-05-07 07:21 | 36.89653 | 30.79875 | 176 ft | 19 kts | 276° |
| 2026-05-07 07:21 | 36.89669 | 30.79695 | 176 ft | 22 kts | 276° |
| 2026-05-07 07:21 | 36.89686 | 30.79503 | 176 ft | 16 kts | 276° |
| 2026-05-07 07:21 | 36.89650 | 30.79429 | 176 ft | 11 kts | 187° |
| 2026-05-07 07:22 | 36.89570 | 30.79419 | 176 ft | 13 kts | 186° |
| 2026-05-07 07:22 | 36.89448 | 30.79403 | 176 ft | 21 kts | 186° |
| 2026-05-07 07:22 | 36.89278 | 30.79381 | 176 ft | 25 kts | 185° |
| 2026-05-07 07:22 | 36.89101 | 30.79356 | 176 ft | 24 kts | 186° |
| 2026-05-07 07:23 | 36.88932 | 30.79333 | 176 ft | 24 kts | 186° |
| 2026-05-07 07:23 | 36.88770 | 30.79311 | 176 ft | 23 kts | 186° |
| 2026-05-07 07:23 | 36.88614 | 30.79289 | 176 ft | 22 kts | 186° |
| 2026-05-07 07:23 | 36.88517 | 30.79263 | 176 ft | 11 kts | 229° |
| 2026-05-07 07:24 | 36.88513 | 30.79172 | 176 ft | 10 kts | 274° |
| 2026-05-07 07:24 | 36.88522 | 30.79085 | 176 ft | 9 kts | 291° |
| 2026-05-07 07:24 | 36.88578 | 30.79068 | 176 ft | 9 kts | 5° |
| 2026-05-07 07:24 | 36.88791 | 30.79096 | 176 ft | 64 kts | 6° |
| 2026-05-07 07:25 | 36.90524 | 30.79336 | 254 ft | 170 kts | 7° |
| 2026-05-07 07:25 | 36.91686 | 30.79472 | 943 ft | 168 kts | 3° |
| 2026-05-07 07:25 | 36.92843 | 30.79345 | 1599 ft | 171 kts | 348° |
| 2026-05-07 07:26 | 36.94012 | 30.79052 | 2134 ft | 178 kts | 350° |
| 2026-05-07 07:26 | 36.95281 | 30.78810 | 2590 ft | 190 kts | 352° |
| 2026-05-07 07:26 | 36.96620 | 30.78575 | 3039 ft | 201 kts | 352° |
| 2026-05-07 07:26 | 36.98057 | 30.78313 | 3480 ft | 217 kts | 352° |
| 2026-05-07 07:27 | 36.99565 | 30.78029 | 4131 ft | 223 kts | 351° |
| 2026-05-07 07:27 | 37.01127 | 30.77710 | 4702 ft | 234 kts | 351° |
| 2026-05-07 07:27 | 37.02764 | 30.77362 | 5207 ft | 247 kts | 351° |
| 2026-05-07 07:27 | 37.04513 | 30.76990 | 5692 ft | 262 kts | 351° |
| 2026-05-07 07:28 | 37.06337 | 30.76605 | 6375 ft | 267 kts | 351° |
| 2026-05-07 07:28 | 37.08147 | 30.76224 | 7120 ft | 270 kts | 351° |
| 2026-05-07 07:28 | 37.10000 | 30.75833 | 7924 ft | 270 kts | 351° |
| 2026-05-07 07:28 | 37.11854 | 30.75444 | 8693 ft | 271 kts | 351° |
| 2026-05-07 07:29 | 37.13703 | 30.75080 | 9392 ft | 274 kts | 351° |
| 2026-05-07 07:29 | 37.15595 | 30.74728 | 10131 ft | 275 kts | 351° |
| 2026-05-07 07:29 | 37.17520 | 30.74374 | 10681 ft | 285 kts | 351° |
| 2026-05-07 07:29 | 37.19520 | 30.74003 | 11111 ft | 299 kts | 351° |
| 2026-05-07 07:30 | 37.21633 | 30.73609 | 11513 ft | 313 kts | 351° |
| 2026-05-07 07:30 | 37.23811 | 30.73200 | 11911 ft | 327 kts | 351° |
| 2026-05-07 07:30 | 37.26115 | 30.72766 | 12355 ft | 339 kts | 351° |
| 2026-05-07 07:30 | 37.28471 | 30.72323 | 13048 ft | 343 kts | 351° |
| 2026-05-07 07:31 | 37.30824 | 30.71884 | 13798 ft | 346 kts | 351° |
| 2026-05-07 07:31 | 37.33207 | 30.71442 | 14469 ft | 351 kts | 351° |
| 2026-05-07 07:31 | 37.35635 | 30.70992 | 15231 ft | 353 kts | 351° |
| 2026-05-07 07:31 | 37.38058 | 30.70544 | 15993 ft | 356 kts | 351° |
| 2026-05-07 07:32 | 37.40503 | 30.70116 | 16682 ft | 359 kts | 352° |
| 2026-05-07 07:32 | 37.43024 | 30.69836 | 17338 ft | 364 kts | 355° |
| 2026-05-07 07:32 | 37.45542 | 30.69671 | 18042 ft | 367 kts | 356° |
| 2026-05-07 07:32 | 37.48122 | 30.69540 | 18732 ft | 370 kts | 356° |
| 2026-05-07 07:33 | 37.50684 | 30.69410 | 19428 ft | 372 kts | 356° |
| 2026-05-07 07:33 | 37.53283 | 30.69264 | 20065 ft | 376 kts | 355° |
| 2026-05-07 07:33 | 37.55880 | 30.69105 | 20714 ft | 379 kts | 355° |
| 2026-05-07 07:33 | 37.58535 | 30.68935 | 21326 ft | 382 kts | 355° |
| 2026-05-07 07:34 | 37.61171 | 30.68769 | 21933 ft | 384 kts | 355° |
| 2026-05-07 07:34 | 37.63875 | 30.68602 | 22561 ft | 386 kts | 355° |
| 2026-05-07 07:34 | 37.66538 | 30.68437 | 23090 ft | 390 kts | 355° |
| 2026-05-07 07:34 | 37.69246 | 30.68270 | 23669 ft | 392 kts | 355° |
| 2026-05-07 07:35 | 37.71994 | 30.68098 | 24180 ft | 396 kts | 355° |
| 2026-05-07 07:35 | 37.74758 | 30.67926 | 24706 ft | 398 kts | 354° |
| 2026-05-07 07:35 | 37.77537 | 30.67751 | 25228 ft | 401 kts | 355° |
| 2026-05-07 07:35 | 37.80297 | 30.67579 | 25784 ft | 402 kts | 354° |
| 2026-05-07 07:36 | 37.83105 | 30.67407 | 26216 ft | 407 kts | 355° |
| 2026-05-07 07:36 | 37.85955 | 30.67379 | 26667 ft | 411 kts | 359° |
| 2026-05-07 07:36 | 37.88818 | 30.67754 | 27120 ft | 417 kts | 7° |
| 2026-05-07 07:36 | 37.91636 | 30.68688 | 27663 ft | 422 kts | 14° |
| 2026-05-07 07:37 | 37.94408 | 30.70002 | 28048 ft | 428 kts | 18° |
| 2026-05-07 07:37 | 37.97108 | 30.71485 | 28519 ft | 430 kts | 20° |
| 2026-05-07 07:37 | 37.99841 | 30.73085 | 28936 ft | 433 kts | 20° |
| 2026-05-07 07:37 | 38.02583 | 30.74728 | 29324 ft | 436 kts | 20° |
| 2026-05-07 07:38 | 38.05305 | 30.76368 | 29747 ft | 438 kts | 20° |
| 2026-05-07 07:38 | 38.08068 | 30.78014 | 30321 ft | 435 kts | 19° |
| 2026-05-07 07:38 | 38.10834 | 30.79444 | 30883 ft | 430 kts | 14° |
| 2026-05-07 07:38 | 38.13689 | 30.80488 | 31461 ft | 423 kts | 8° |
| 2026-05-07 07:39 | 38.16584 | 30.81109 | 32005 ft | 417 kts | 2° |
| 2026-05-07 07:39 | 38.19443 | 30.81300 | 32496 ft | 413 kts | 356° |
| 2026-05-07 07:39 | 38.22306 | 30.81067 | 32963 ft | 409 kts | 350° |
| 2026-05-07 07:39 | 38.25073 | 30.80448 | 33417 ft | 407 kts | 346° |
| 2026-05-07 07:40 | 38.27840 | 30.79629 | 33874 ft | 405 kts | 345° |
| 2026-05-07 07:40 | 38.30564 | 30.78818 | 34268 ft | 405 kts | 346° |
| 2026-05-07 07:40 | 38.33342 | 30.78069 | 34578 ft | 406 kts | 347° |
| 2026-05-07 07:40 | 38.36104 | 30.77420 | 34855 ft | 406 kts | 348° |
| 2026-05-07 07:41 | 38.38916 | 30.76840 | 35189 ft | 406 kts | 349° |
| 2026-05-07 07:41 | 38.41703 | 30.76318 | 35465 ft | 406 kts | 349° |
| 2026-05-07 07:41 | 38.44513 | 30.75824 | 35746 ft | 406 kts | 350° |
| 2026-05-07 07:41 | 38.47334 | 30.75344 | 36009 ft | 406 kts | 350° |
| 2026-05-07 07:42 | 38.50181 | 30.74868 | 36182 ft | 408 kts | 350° |
| 2026-05-07 07:42 | 38.55863 | 30.73925 | 36190 ft | 408 kts | 350° |
| 2026-05-07 07:43 | 38.61499 | 30.72992 | 36198 ft | 407 kts | 350° |
| 2026-05-07 07:43 | 38.67131 | 30.72056 | 36194 ft | 407 kts | 350° |
| 2026-05-07 07:44 | 38.72728 | 30.71123 | 36191 ft | 407 kts | 350° |
| 2026-05-07 07:44 | 38.78385 | 30.70178 | 36190 ft | 408 kts | 350° |
| 2026-05-07 07:45 | 38.83932 | 30.68937 | 36190 ft | 405 kts | 343° |
| 2026-05-07 07:45 | 38.89175 | 30.66487 | 36193 ft | 402 kts | 334° |
| 2026-05-07 07:46 | 38.94234 | 30.63309 | 36190 ft | 403 kts | 332° |
| 2026-05-07 07:46 | 38.99187 | 30.60028 | 36185 ft | 402 kts | 332° |
| 2026-05-07 07:47 | 39.04160 | 30.56740 | 36188 ft | 404 kts | 332° |
| 2026-05-07 07:47 | 39.09172 | 30.53444 | 36190 ft | 403 kts | 333° |
| 2026-05-07 07:48 | 39.14187 | 30.50155 | 36190 ft | 403 kts | 333° |
| 2026-05-07 07:48 | 39.19179 | 30.46880 | 36188 ft | 402 kts | 333° |
| 2026-05-07 07:49 | 39.24138 | 30.43625 | 36188 ft | 403 kts | 333° |
| 2026-05-07 07:49 | 39.29147 | 30.40333 | 36187 ft | 403 kts | 333° |
| 2026-05-07 07:50 | 39.34143 | 30.37043 | 36184 ft | 403 kts | 333° |
| 2026-05-07 07:50 | 39.39121 | 30.33759 | 36180 ft | 403 kts | 332° |
| 2026-05-07 07:51 | 39.44129 | 30.30449 | 36180 ft | 403 kts | 332° |
| 2026-05-07 07:51 | 39.49113 | 30.27152 | 36185 ft | 403 kts | 332° |
| 2026-05-07 07:52 | 39.54227 | 30.24078 | 36187 ft | 404 kts | 336° |
| 2026-05-07 07:52 | 39.59435 | 30.21368 | 36188 ft | 404 kts | 337° |
| 2026-05-07 07:53 | 39.64657 | 30.18677 | 36185 ft | 403 kts | 337° |
| 2026-05-07 07:53 | 39.69838 | 30.15960 | 36172 ft | 403 kts | 336° |
| 2026-05-07 07:54 | 39.75015 | 30.13209 | 36176 ft | 403 kts | 336° |
| 2026-05-07 07:54 | 39.80204 | 30.10434 | 36167 ft | 403 kts | 336° |
| 2026-05-07 07:55 | 39.85366 | 30.07661 | 36167 ft | 404 kts | 336° |
| 2026-05-07 07:55 | 39.90573 | 30.04858 | 36167 ft | 405 kts | 336° |
| 2026-05-07 07:56 | 39.95739 | 30.02073 | 36165 ft | 403 kts | 336° |
| 2026-05-07 07:56 | 40.00934 | 29.99269 | 36158 ft | 402 kts | 336° |
| 2026-05-07 07:57 | 40.06113 | 29.96468 | 36151 ft | 404 kts | 336° |
| 2026-05-07 07:57 | 40.11306 | 29.93654 | 36153 ft | 404 kts | 336° |
| 2026-05-07 07:58 | 40.16519 | 29.90826 | 36147 ft | 403 kts | 336° |
| 2026-05-07 07:58 | 40.21679 | 29.88020 | 36142 ft | 405 kts | 336° |
| 2026-05-07 07:59 | 40.26899 | 29.85179 | 36140 ft | 404 kts | 336° |
| 2026-05-07 07:59 | 40.32077 | 29.82356 | 36137 ft | 405 kts | 337° |
| 2026-05-07 08:00 | 40.37283 | 29.79513 | 36137 ft | 404 kts | 336° |
| 2026-05-07 08:00 | 40.42444 | 29.76689 | 36141 ft | 405 kts | 336° |
| 2026-05-07 08:01 | 40.47636 | 29.73841 | 36143 ft | 405 kts | 336° |
| 2026-05-07 08:01 | 40.52863 | 29.70972 | 36139 ft | 406 kts | 336° |
| 2026-05-07 08:02 | 40.58044 | 29.68123 | 36134 ft | 406 kts | 336° |
| 2026-05-07 08:02 | 40.63229 | 29.65168 | 36126 ft | 406 kts | 334° |
| 2026-05-07 08:03 | 40.68098 | 29.61439 | 36121 ft | 406 kts | 326° |
| 2026-05-07 08:03 | 40.72645 | 29.56934 | 36120 ft | 407 kts | 322° |
| 2026-05-07 08:04 | 40.77029 | 29.52296 | 36119 ft | 406 kts | 322° |
| 2026-05-07 08:04 | 40.81447 | 29.47587 | 36118 ft | 407 kts | 322° |
| 2026-05-07 08:05 | 40.85852 | 29.42904 | 36121 ft | 408 kts | 322° |
| 2026-05-07 08:05 | 40.90248 | 29.38237 | 36122 ft | 408 kts | 322° |
| 2026-05-07 08:06 | 40.94664 | 29.33548 | 36124 ft | 407 kts | 321° |
| 2026-05-07 08:06 | 40.99088 | 29.28845 | 36122 ft | 409 kts | 321° |
| 2026-05-07 08:07 | 41.03513 | 29.24133 | 36119 ft | 409 kts | 321° |
| 2026-05-07 08:07 | 41.07939 | 29.19411 | 36122 ft | 409 kts | 321° |
| 2026-05-07 08:08 | 41.12367 | 29.14680 | 36121 ft | 409 kts | 321° |
| 2026-05-07 08:08 | 41.16856 | 29.10081 | 36124 ft | 408 kts | 323° |
| 2026-05-07 08:09 | 41.21421 | 29.05618 | 36118 ft | 409 kts | 324° |
| 2026-05-07 08:09 | 41.26006 | 29.01141 | 36116 ft | 410 kts | 323° |
| 2026-05-07 08:10 | 41.30590 | 28.96632 | 36116 ft | 409 kts | 323° |
| 2026-05-07 08:10 | 41.35134 | 28.92135 | 36119 ft | 409 kts | 323° |
| 2026-05-07 08:11 | 41.39687 | 28.87614 | 36120 ft | 409 kts | 323° |
| 2026-05-07 08:11 | 41.44255 | 28.83065 | 36117 ft | 408 kts | 323° |
| 2026-05-07 08:12 | 41.48774 | 28.78559 | 36113 ft | 409 kts | 323° |
| 2026-05-07 08:12 | 41.53315 | 28.74022 | 36117 ft | 409 kts | 323° |
| 2026-05-07 08:13 | 41.57885 | 28.69445 | 36111 ft | 409 kts | 323° |
| 2026-05-07 08:13 | 41.62412 | 28.64905 | 36109 ft | 408 kts | 323° |
| 2026-05-07 08:14 | 41.66935 | 28.60360 | 36109 ft | 408 kts | 323° |
| 2026-05-07 08:14 | 41.71482 | 28.55785 | 36106 ft | 410 kts | 323° |
| 2026-05-07 08:15 | 41.76015 | 28.51215 | 36105 ft | 408 kts | 323° |
| 2026-05-07 08:15 | 41.80561 | 28.46624 | 36103 ft | 409 kts | 323° |
| 2026-05-07 08:16 | 41.85098 | 28.42032 | 36101 ft | 409 kts | 323° |
| 2026-05-07 08:16 | 41.89618 | 28.37449 | 36100 ft | 409 kts | 323° |
| 2026-05-07 08:17 | 41.94159 | 28.32836 | 36100 ft | 410 kts | 323° |
| 2026-05-07 08:17 | 41.98652 | 28.28128 | 36098 ft | 410 kts | 319° |
| 2026-05-07 08:18 | 42.02732 | 28.22852 | 36096 ft | 410 kts | 315° |
| 2026-05-07 08:18 | 42.06691 | 28.17315 | 36097 ft | 410 kts | 314° |
| 2026-05-07 08:19 | 42.10620 | 28.11813 | 36096 ft | 410 kts | 314° |
| 2026-05-07 08:19 | 42.14616 | 28.06263 | 36096 ft | 411 kts | 315° |
| 2026-05-07 08:20 | 42.18569 | 28.00795 | 36094 ft | 410 kts | 315° |
| 2026-05-07 08:20 | 42.22563 | 27.95272 | 36098 ft | 411 kts | 315° |
| 2026-05-07 08:21 | 42.26545 | 27.89758 | 36095 ft | 411 kts | 315° |
| 2026-05-07 08:21 | 42.30524 | 27.84241 | 36098 ft | 411 kts | 315° |
| 2026-05-07 08:22 | 42.34523 | 27.78684 | 36098 ft | 410 kts | 315° |
| 2026-05-07 08:22 | 42.38486 | 27.73166 | 36100 ft | 409 kts | 315° |
| 2026-05-07 08:23 | 42.42438 | 27.67653 | 36103 ft | 411 kts | 315° |
| 2026-05-07 08:23 | 42.46402 | 27.62111 | 36104 ft | 409 kts | 315° |
| 2026-05-07 08:24 | 42.50361 | 27.56567 | 36102 ft | 411 kts | 315° |
| 2026-05-07 08:24 | 42.54317 | 27.51016 | 36104 ft | 410 kts | 315° |
| 2026-05-07 08:25 | 42.58282 | 27.45441 | 36102 ft | 411 kts | 315° |
| 2026-05-07 08:25 | 42.62243 | 27.39860 | 36100 ft | 411 kts | 315° |
| 2026-05-07 08:26 | 42.68154 | 27.31515 | 36095 ft | 410 kts | 314° |
| 2026-05-07 08:26 | 42.72119 | 27.25901 | 36095 ft | 410 kts | 314° |
| 2026-05-07 08:27 | 42.76041 | 27.20338 | 36091 ft | 411 kts | 314° |
| 2026-05-07 08:27 | 42.79997 | 27.14716 | 36088 ft | 411 kts | 314° |
| 2026-05-07 08:28 | 42.83924 | 27.09124 | 36086 ft | 411 kts | 314° |
| 2026-05-07 08:28 | 42.87884 | 27.03473 | 36080 ft | 413 kts | 314° |
| 2026-05-07 08:29 | 42.91850 | 26.97805 | 36083 ft | 412 kts | 314° |
| 2026-05-07 08:29 | 42.95774 | 26.92186 | 36077 ft | 412 kts | 314° |
| 2026-05-07 08:30 | 42.99756 | 26.86472 | 36072 ft | 413 kts | 314° |
| 2026-05-07 08:30 | 43.03702 | 26.80798 | 36073 ft | 412 kts | 314° |
| 2026-05-07 08:31 | 43.07655 | 26.75101 | 36068 ft | 413 kts | 314° |
| 2026-05-07 08:31 | 43.11595 | 26.69412 | 36066 ft | 413 kts | 314° |
| 2026-05-07 08:32 | 43.15572 | 26.63658 | 36067 ft | 413 kts | 314° |
| 2026-05-07 08:32 | 43.19509 | 26.57952 | 36070 ft | 414 kts | 313° |
| 2026-05-07 08:33 | 43.23447 | 26.52231 | 36068 ft | 413 kts | 313° |
| 2026-05-07 08:33 | 43.27372 | 26.46518 | 36066 ft | 413 kts | 313° |
| 2026-05-07 08:34 | 43.31300 | 26.40790 | 36070 ft | 413 kts | 313° |
| 2026-05-07 08:34 | 43.35232 | 26.35045 | 36067 ft | 413 kts | 313° |
| 2026-05-07 08:35 | 43.39154 | 26.29302 | 36069 ft | 413 kts | 313° |
| 2026-05-07 08:35 | 43.43076 | 26.23546 | 36070 ft | 413 kts | 313° |
| 2026-05-07 08:36 | 43.47008 | 26.17764 | 36062 ft | 415 kts | 313° |
| 2026-05-07 08:36 | 43.50925 | 26.11994 | 36063 ft | 413 kts | 313° |
| 2026-05-07 08:37 | 43.54848 | 26.06202 | 36059 ft | 414 kts | 312° |
| 2026-05-07 08:37 | 43.58747 | 26.00435 | 36057 ft | 413 kts | 312° |
| 2026-05-07 08:38 | 43.62669 | 25.94621 | 36056 ft | 414 kts | 312° |
| 2026-05-07 08:38 | 43.66572 | 25.88824 | 36053 ft | 414 kts | 312° |
| 2026-05-07 08:39 | 43.70522 | 25.82946 | 36053 ft | 415 kts | 312° |
| 2026-05-07 08:39 | 43.74427 | 25.77122 | 36048 ft | 414 kts | 312° |
| 2026-05-07 08:40 | 43.78344 | 25.71268 | 36050 ft | 414 kts | 312° |
| 2026-05-07 08:40 | 43.82242 | 25.65430 | 36048 ft | 415 kts | 312° |
| 2026-05-07 08:41 | 43.86144 | 25.59575 | 36048 ft | 415 kts | 312° |
| 2026-05-07 08:41 | 43.90051 | 25.53700 | 36054 ft | 415 kts | 312° |
| 2026-05-07 08:42 | 43.93944 | 25.47832 | 36052 ft | 414 kts | 311° |
| 2026-05-07 08:42 | 43.97915 | 25.42011 | 36055 ft | 416 kts | 315° |
| 2026-05-07 08:43 | 44.02234 | 25.36757 | 36057 ft | 416 kts | 319° |
| 2026-05-07 08:43 | 44.06727 | 25.31709 | 36057 ft | 416 kts | 319° |
| 2026-05-07 08:44 | 44.11232 | 25.26677 | 36054 ft | 417 kts | 319° |
| 2026-05-07 08:44 | 44.15752 | 25.21584 | 36056 ft | 417 kts | 319° |
| 2026-05-07 08:45 | 44.20248 | 25.16481 | 36058 ft | 418 kts | 319° |
| 2026-05-07 08:45 | 44.24715 | 25.11385 | 36060 ft | 419 kts | 319° |
| 2026-05-07 08:46 | 44.29223 | 25.06228 | 36058 ft | 418 kts | 319° |
| 2026-05-07 08:46 | 44.33711 | 25.01081 | 36056 ft | 419 kts | 318° |
| 2026-05-07 08:47 | 44.38204 | 24.95916 | 36046 ft | 419 kts | 318° |
| 2026-05-07 08:47 | 44.42683 | 24.90761 | 36050 ft | 420 kts | 318° |
| 2026-05-07 08:48 | 44.47187 | 24.85565 | 36055 ft | 420 kts | 318° |
| 2026-05-07 08:48 | 44.51704 | 24.80342 | 36058 ft | 420 kts | 318° |
| 2026-05-07 08:49 | 44.56207 | 24.75125 | 36057 ft | 420 kts | 318° |
| 2026-05-07 08:49 | 44.60696 | 24.69914 | 36060 ft | 421 kts | 318° |
| 2026-05-07 08:50 | 44.65185 | 24.64693 | 36061 ft | 420 kts | 318° |
| 2026-05-07 08:50 | 44.69696 | 24.59434 | 36064 ft | 421 kts | 318° |
| 2026-05-07 08:51 | 44.74184 | 24.54190 | 36067 ft | 421 kts | 318° |
| 2026-05-07 08:51 | 44.78655 | 24.48956 | 36065 ft | 420 kts | 318° |
| 2026-05-07 08:52 | 44.83153 | 24.43680 | 36066 ft | 423 kts | 318° |
| 2026-05-07 08:52 | 44.87660 | 24.38382 | 36067 ft | 421 kts | 317° |
| 2026-05-07 08:53 | 44.92097 | 24.33081 | 36066 ft | 421 kts | 315° |
| 2026-05-07 08:53 | 44.96212 | 24.27194 | 36068 ft | 419 kts | 310° |
| 2026-05-07 08:54 | 45.00091 | 24.21148 | 36065 ft | 418 kts | 309° |
| 2026-05-07 08:54 | 45.03989 | 24.15048 | 36069 ft | 418 kts | 309° |
| 2026-05-07 08:55 | 45.07903 | 24.08970 | 36074 ft | 420 kts | 310° |
| 2026-05-07 08:55 | 45.11835 | 24.02891 | 36080 ft | 418 kts | 310° |
| 2026-05-07 08:56 | 45.15759 | 23.96827 | 36075 ft | 421 kts | 310° |
| 2026-05-07 08:56 | 45.19687 | 23.90752 | 36084 ft | 419 kts | 310° |
| 2026-05-07 08:57 | 45.23618 | 23.84658 | 36088 ft | 420 kts | 309° |
| 2026-05-07 08:57 | 45.27567 | 23.78522 | 36092 ft | 422 kts | 310° |
| 2026-05-07 08:58 | 45.31517 | 23.72374 | 36088 ft | 423 kts | 310° |
| 2026-05-07 08:58 | 45.35505 | 23.66153 | 36097 ft | 424 kts | 309° |
| 2026-05-07 08:59 | 45.39457 | 23.59978 | 36093 ft | 424 kts | 310° |
| 2026-05-07 08:59 | 45.43422 | 23.53764 | 36092 ft | 423 kts | 309° |
| 2026-05-07 09:00 | 45.47360 | 23.47577 | 36084 ft | 423 kts | 309° |
| 2026-05-07 09:00 | 45.51313 | 23.41351 | 36085 ft | 423 kts | 309° |
| 2026-05-07 09:01 | 45.55278 | 23.35089 | 36077 ft | 425 kts | 309° |
| 2026-05-07 09:01 | 45.59218 | 23.28856 | 36073 ft | 424 kts | 309° |
| 2026-05-07 09:02 | 45.63162 | 23.22605 | 36064 ft | 424 kts | 308° |
| 2026-05-07 09:02 | 45.67091 | 23.16362 | 36048 ft | 425 kts | 308° |
| 2026-05-07 09:03 | 45.71060 | 23.10043 | 36041 ft | 426 kts | 308° |
| 2026-05-07 09:03 | 45.74985 | 23.03778 | 36040 ft | 426 kts | 308° |
| 2026-05-07 09:04 | 45.78922 | 22.97480 | 36040 ft | 425 kts | 308° |
| 2026-05-07 09:04 | 45.82850 | 22.91183 | 36045 ft | 426 kts | 308° |
| 2026-05-07 09:05 | 45.86791 | 22.84852 | 36043 ft | 426 kts | 308° |
| 2026-05-07 09:05 | 45.90720 | 22.78521 | 36041 ft | 427 kts | 308° |
| 2026-05-07 09:06 | 45.94681 | 22.72126 | 36039 ft | 428 kts | 308° |
| 2026-05-07 09:06 | 45.98600 | 22.65786 | 36038 ft | 428 kts | 308° |
| 2026-05-07 09:07 | 46.02556 | 22.59367 | 36038 ft | 429 kts | 308° |
| 2026-05-07 09:07 | 46.06498 | 22.52958 | 36037 ft | 428 kts | 308° |
| 2026-05-07 09:08 | 46.10421 | 22.46564 | 36037 ft | 429 kts | 308° |
| 2026-05-07 09:08 | 46.14368 | 22.40119 | 36038 ft | 430 kts | 308° |
| 2026-05-07 09:09 | 46.18293 | 22.33694 | 36037 ft | 429 kts | 307° |
| 2026-05-07 09:09 | 46.22217 | 22.27254 | 36030 ft | 430 kts | 307° |
| 2026-05-07 09:10 | 46.26160 | 22.20768 | 36034 ft | 429 kts | 307° |
| 2026-05-07 09:10 | 46.30089 | 22.14290 | 36036 ft | 430 kts | 307° |
| 2026-05-07 09:11 | 46.34006 | 22.07817 | 36035 ft | 431 kts | 307° |
| 2026-05-07 09:11 | 46.37925 | 22.01326 | 36030 ft | 430 kts | 307° |
| 2026-05-07 09:12 | 46.41867 | 21.94778 | 36030 ft | 432 kts | 307° |
| 2026-05-07 09:12 | 46.45800 | 21.88230 | 36025 ft | 431 kts | 307° |
| 2026-05-07 09:13 | 46.49721 | 21.81685 | 36021 ft | 432 kts | 306° |
| 2026-05-07 09:13 | 46.53634 | 21.75138 | 36018 ft | 432 kts | 307° |
| 2026-05-07 09:14 | 46.57563 | 21.68550 | 36021 ft | 433 kts | 307° |
| 2026-05-07 09:14 | 46.61488 | 21.61957 | 36018 ft | 433 kts | 307° |
| 2026-05-07 09:15 | 46.65423 | 21.55329 | 36018 ft | 433 kts | 306° |
| 2026-05-07 09:15 | 46.69364 | 21.48677 | 36082 ft | 438 kts | 307° |
| 2026-05-07 09:16 | 46.71371 | 21.45350 | 36452 ft | 436 kts | 307° |
| 2026-05-07 09:16 | 46.73392 | 21.42055 | 36836 ft | 436 kts | 308° |
| 2026-05-07 09:16 | 46.75412 | 21.38783 | 37203 ft | 436 kts | 308° |
| 2026-05-07 09:16 | 46.77411 | 21.35546 | 37496 ft | 437 kts | 308° |
| 2026-05-07 09:17 | 46.79440 | 21.32255 | 37837 ft | 437 kts | 307° |
| 2026-05-07 09:17 | 46.81473 | 21.28951 | 38021 ft | 439 kts | 307° |
| 2026-05-07 09:17 | 46.85547 | 21.22306 | 38010 ft | 437 kts | 307° |
| 2026-05-07 09:18 | 46.89574 | 21.15710 | 38010 ft | 436 kts | 307° |
| 2026-05-07 09:18 | 46.93594 | 21.09101 | 38011 ft | 438 kts | 307° |
| 2026-05-07 09:19 | 46.97621 | 21.02461 | 38013 ft | 439 kts | 307° |
| 2026-05-07 09:19 | 47.01671 | 20.95765 | 38007 ft | 438 kts | 307° |
| 2026-05-07 09:20 | 47.05700 | 20.89090 | 38006 ft | 439 kts | 307° |
| 2026-05-07 09:20 | 47.09709 | 20.82426 | 37998 ft | 438 kts | 307° |
| 2026-05-07 09:21 | 47.13726 | 20.75738 | 38002 ft | 438 kts | 307° |
| 2026-05-07 09:21 | 47.17723 | 20.69063 | 37994 ft | 439 kts | 307° |
| 2026-05-07 09:22 | 47.21741 | 20.62336 | 37994 ft | 438 kts | 307° |
| 2026-05-07 09:22 | 47.25748 | 20.55610 | 37983 ft | 439 kts | 307° |
| 2026-05-07 09:23 | 47.29772 | 20.48841 | 37984 ft | 438 kts | 307° |
| 2026-05-07 09:23 | 47.33767 | 20.42108 | 37984 ft | 438 kts | 307° |
| 2026-05-07 09:24 | 47.37777 | 20.35328 | 37980 ft | 439 kts | 307° |
| 2026-05-07 09:24 | 47.41794 | 20.28520 | 37980 ft | 439 kts | 306° |
| 2026-05-07 09:25 | 47.45758 | 20.21787 | 37981 ft | 438 kts | 306° |
| 2026-05-07 09:25 | 47.49758 | 20.14976 | 37980 ft | 438 kts | 306° |
| 2026-05-07 09:26 | 47.53748 | 20.08161 | 37979 ft | 438 kts | 306° |
| 2026-05-07 09:26 | 47.57709 | 20.01379 | 37982 ft | 438 kts | 306° |
| 2026-05-07 09:27 | 47.61699 | 19.94534 | 37978 ft | 439 kts | 306° |
| 2026-05-07 09:28 | 47.67663 | 19.84269 | 37979 ft | 439 kts | 306° |
| 2026-05-07 09:28 | 47.71611 | 19.77450 | 37980 ft | 440 kts | 306° |
| 2026-05-07 09:29 | 47.75592 | 19.70557 | 37976 ft | 439 kts | 306° |
| 2026-05-07 09:29 | 47.79545 | 19.63691 | 37979 ft | 439 kts | 306° |
| 2026-05-07 09:30 | 47.83503 | 19.56800 | 37980 ft | 440 kts | 306° |
| 2026-05-07 09:30 | 47.87462 | 19.49892 | 37979 ft | 439 kts | 306° |
| 2026-05-07 09:31 | 47.91412 | 19.42984 | 37978 ft | 440 kts | 305° |
| 2026-05-07 09:31 | 47.95364 | 19.36054 | 37976 ft | 439 kts | 305° |
| 2026-05-07 09:32 | 47.99299 | 19.29136 | 37974 ft | 440 kts | 304° |
| 2026-05-07 09:32 | 48.03270 | 19.22139 | 37975 ft | 440 kts | 304° |
| 2026-05-07 09:33 | 48.07218 | 19.15161 | 37976 ft | 442 kts | 304° |
| 2026-05-07 09:33 | 48.11174 | 19.08147 | 37972 ft | 442 kts | 304° |
| 2026-05-07 09:34 | 48.15113 | 19.01149 | 37975 ft | 442 kts | 304° |
| 2026-05-07 09:34 | 48.19075 | 18.94092 | 37975 ft | 442 kts | 304° |
| 2026-05-07 09:35 | 48.23025 | 18.87035 | 37973 ft | 442 kts | 304° |
| 2026-05-07 09:35 | 48.26939 | 18.80027 | 37966 ft | 440 kts | 304° |
| 2026-05-07 09:36 | 48.30885 | 18.72943 | 37972 ft | 441 kts | 304° |
| 2026-05-07 09:36 | 48.34807 | 18.65880 | 37962 ft | 442 kts | 304° |
| 2026-05-07 09:37 | 48.38721 | 18.58809 | 37960 ft | 443 kts | 304° |
| 2026-05-07 09:37 | 48.42669 | 18.51663 | 37962 ft | 443 kts | 304° |
| 2026-05-07 09:38 | 48.46605 | 18.44517 | 37963 ft | 444 kts | 304° |
| 2026-05-07 09:38 | 48.50539 | 18.37360 | 37954 ft | 445 kts | 304° |
| 2026-05-07 09:39 | 48.54482 | 18.30175 | 37961 ft | 444 kts | 303° |
| 2026-05-07 09:39 | 48.58389 | 18.23035 | 37948 ft | 444 kts | 303° |
| 2026-05-07 09:40 | 48.62331 | 18.15804 | 37948 ft | 445 kts | 303° |
| 2026-05-07 09:40 | 48.66241 | 18.08613 | 37943 ft | 444 kts | 303° |
| 2026-05-07 09:41 | 48.70133 | 18.01437 | 37946 ft | 445 kts | 303° |
| 2026-05-07 09:41 | 48.74054 | 17.94186 | 37949 ft | 446 kts | 303° |
| 2026-05-07 09:42 | 48.77953 | 17.86960 | 37942 ft | 445 kts | 303° |
| 2026-05-07 09:42 | 48.81860 | 17.79694 | 37942 ft | 445 kts | 303° |
| 2026-05-07 09:43 | 48.85793 | 17.72472 | 37939 ft | 450 kts | 306° |
| 2026-05-07 09:43 | 48.90200 | 17.65712 | 37948 ft | 455 kts | 311° |
| 2026-05-07 09:44 | 48.94908 | 17.59233 | 37943 ft | 455 kts | 313° |
| 2026-05-07 09:44 | 48.99638 | 17.52847 | 37936 ft | 457 kts | 313° |
| 2026-05-07 09:45 | 49.04349 | 17.46441 | 37948 ft | 456 kts | 313° |
| 2026-05-07 09:45 | 49.09049 | 17.39995 | 37934 ft | 455 kts | 313° |
| 2026-05-07 09:46 | 49.13728 | 17.33531 | 37946 ft | 457 kts | 312° |
| 2026-05-07 09:46 | 49.18394 | 17.27059 | 37943 ft | 456 kts | 312° |
| 2026-05-07 09:47 | 49.23092 | 17.20518 | 37946 ft | 456 kts | 312° |
| 2026-05-07 09:47 | 49.27756 | 17.14003 | 37938 ft | 456 kts | 312° |
| 2026-05-07 09:48 | 49.32432 | 17.07451 | 37930 ft | 458 kts | 312° |
| 2026-05-07 09:48 | 49.37096 | 17.00897 | 37937 ft | 457 kts | 312° |
| 2026-05-07 09:49 | 49.41788 | 16.94290 | 37938 ft | 457 kts | 312° |
| 2026-05-07 09:49 | 49.46431 | 16.87735 | 37937 ft | 459 kts | 312° |
| 2026-05-07 09:50 | 49.51126 | 16.81088 | 37923 ft | 457 kts | 312° |
| 2026-05-07 09:50 | 49.55795 | 16.74460 | 37935 ft | 458 kts | 312° |
| 2026-05-07 09:51 | 49.60445 | 16.67839 | 37940 ft | 457 kts | 312° |
| 2026-05-07 09:51 | 49.65087 | 16.61214 | 37939 ft | 457 kts | 312° |
| 2026-05-07 09:52 | 49.69743 | 16.54550 | 37938 ft | 457 kts | 312° |
| 2026-05-07 09:52 | 49.74388 | 16.47885 | 37942 ft | 458 kts | 312° |
| 2026-05-07 09:53 | 49.79053 | 16.41174 | 37937 ft | 458 kts | 312° |
| 2026-05-07 09:53 | 49.83690 | 16.34481 | 37936 ft | 460 kts | 311° |
| 2026-05-07 09:54 | 49.88346 | 16.27745 | 37936 ft | 458 kts | 311° |
| 2026-05-07 09:54 | 49.93004 | 16.20988 | 37932 ft | 460 kts | 311° |
| 2026-05-07 09:55 | 49.97623 | 16.14269 | 37937 ft | 457 kts | 311° |
| 2026-05-07 09:55 | 50.02235 | 16.07545 | 37926 ft | 455 kts | 311° |
| 2026-05-07 09:56 | 50.06839 | 16.00807 | 37928 ft | 458 kts | 311° |
| 2026-05-07 09:56 | 50.11467 | 15.94014 | 37928 ft | 458 kts | 311° |
| 2026-05-07 09:57 | 50.16086 | 15.87221 | 37923 ft | 458 kts | 312° |
| 2026-05-07 09:57 | 50.20715 | 15.80393 | 37914 ft | 459 kts | 312° |
| 2026-05-07 09:58 | 50.25333 | 15.73564 | 37911 ft | 459 kts | 312° |
| 2026-05-07 09:58 | 50.29939 | 15.66732 | 37908 ft | 460 kts | 312° |
| 2026-05-07 09:59 | 50.34551 | 15.59872 | 37911 ft | 459 kts | 312° |
| 2026-05-07 09:59 | 50.39190 | 15.52951 | 37904 ft | 460 kts | 312° |
| 2026-05-07 10:00 | 50.43791 | 15.46068 | 37899 ft | 459 kts | 312° |
| 2026-05-07 10:00 | 50.48396 | 15.39159 | 37906 ft | 459 kts | 312° |
| 2026-05-07 10:01 | 50.52979 | 15.32264 | 37899 ft | 461 kts | 311° |
| 2026-05-07 10:01 | 50.57584 | 15.25317 | 37901 ft | 459 kts | 311° |
| 2026-05-07 10:02 | 50.62192 | 15.18345 | 37895 ft | 461 kts | 311° |
| 2026-05-07 10:02 | 50.66786 | 15.11373 | 37887 ft | 462 kts | 312° |
| 2026-05-07 10:03 | 50.71394 | 15.04362 | 37885 ft | 461 kts | 312° |
| 2026-05-07 10:03 | 50.75975 | 14.97372 | 37885 ft | 461 kts | 312° |
| 2026-05-07 10:04 | 50.80580 | 14.90328 | 37882 ft | 461 kts | 312° |
| 2026-05-07 10:04 | 50.85144 | 14.83323 | 37894 ft | 462 kts | 312° |
| 2026-05-07 10:05 | 50.89741 | 14.76244 | 37983 ft | 461 kts | 311° |
| 2026-05-07 10:05 | 50.93652 | 14.68437 | 37906 ft | 450 kts | 294° |
| 2026-05-07 10:06 | 50.95893 | 14.59321 | 37907 ft | 447 kts | 283° |
| 2026-05-07 10:06 | 50.97592 | 14.49872 | 37903 ft | 445 kts | 282° |
| 2026-05-07 10:07 | 50.99194 | 14.40445 | 37902 ft | 445 kts | 281° |
| 2026-05-07 10:07 | 51.00815 | 14.30967 | 37905 ft | 446 kts | 281° |
| 2026-05-07 10:08 | 51.02449 | 14.21538 | 37902 ft | 445 kts | 281° |
| 2026-05-07 10:08 | 51.03268 | 14.16826 | 37634 ft | 443 kts | 281° |
| 2026-05-07 10:08 | 51.04082 | 14.12155 | 37216 ft | 440 kts | 281° |
| 2026-05-07 10:08 | 51.04894 | 14.07490 | 36657 ft | 440 kts | 281° |
| 2026-05-07 10:09 | 51.05700 | 14.02841 | 36039 ft | 442 kts | 281° |
| 2026-05-07 10:09 | 51.06515 | 13.98128 | 35364 ft | 446 kts | 281° |
| 2026-05-07 10:09 | 51.07339 | 13.93346 | 34629 ft | 451 kts | 281° |
| 2026-05-07 10:09 | 51.08160 | 13.88566 | 33871 ft | 456 kts | 281° |
| 2026-05-07 10:10 | 51.08989 | 13.83722 | 33028 ft | 461 kts | 281° |
| 2026-05-07 10:10 | 51.09831 | 13.78790 | 32141 ft | 466 kts | 282° |
| 2026-05-07 10:10 | 51.10676 | 13.73834 | 31235 ft | 469 kts | 282° |
| 2026-05-07 10:10 | 51.11524 | 13.68854 | 30285 ft | 473 kts | 283° |
| 2026-05-07 10:11 | 51.12373 | 13.63868 | 29654 ft | 466 kts | 283° |
| 2026-05-07 10:11 | 51.13213 | 13.58928 | 29060 ft | 461 kts | 283° |
| 2026-05-07 10:11 | 51.14042 | 13.54040 | 28468 ft | 455 kts | 283° |
| 2026-05-07 10:11 | 51.14856 | 13.49224 | 27880 ft | 450 kts | 284° |
| 2026-05-07 10:12 | 51.15656 | 13.44469 | 27297 ft | 445 kts | 284° |
| 2026-05-07 10:12 | 51.16072 | 13.41980 | 26990 ft | 442 kts | 284° |
| 2026-05-07 10:12 | 51.16623 | 13.38317 | 26519 ft | 438 kts | 282° |
| 2026-05-07 10:12 | 51.17165 | 13.33610 | 25938 ft | 433 kts | 277° |
| 2026-05-07 10:13 | 51.17447 | 13.28897 | 25367 ft | 428 kts | 272° |
| 2026-05-07 10:13 | 51.17545 | 13.24212 | 24803 ft | 423 kts | 270° |
| 2026-05-07 10:13 | 51.17546 | 13.19580 | 24312 ft | 416 kts | 269° |
| 2026-05-07 10:13 | 51.17513 | 13.15021 | 23799 ft | 411 kts | 269° |
| 2026-05-07 10:14 | 51.17471 | 13.10487 | 23284 ft | 406 kts | 268° |
| 2026-05-07 10:14 | 51.17428 | 13.06067 | 22756 ft | 401 kts | 269° |
| 2026-05-07 10:14 | 51.17388 | 13.01643 | 22192 ft | 397 kts | 269° |
| 2026-05-07 10:14 | 51.17352 | 12.97284 | 21581 ft | 395 kts | 269° |
| 2026-05-07 10:15 | 51.17322 | 12.92962 | 20999 ft | 392 kts | 269° |
| 2026-05-07 10:15 | 51.17307 | 12.88653 | 20442 ft | 389 kts | 270° |
| 2026-05-07 10:15 | 51.17445 | 12.84354 | 19814 ft | 388 kts | 275° |
| 2026-05-07 10:15 | 51.17952 | 12.80175 | 19181 ft | 386 kts | 285° |
| 2026-05-07 10:16 | 51.18782 | 12.76166 | 18635 ft | 382 kts | 289° |
| 2026-05-07 10:16 | 51.19758 | 12.72286 | 18103 ft | 378 kts | 292° |
| 2026-05-07 10:16 | 51.20797 | 12.68458 | 17564 ft | 374 kts | 293° |
| 2026-05-07 10:16 | 51.21824 | 12.64728 | 17039 ft | 369 kts | 293° |
| 2026-05-07 10:17 | 51.22843 | 12.60977 | 16525 ft | 365 kts | 293° |
| 2026-05-07 10:17 | 51.23828 | 12.57299 | 16003 ft | 361 kts | 292° |
| 2026-05-07 10:17 | 51.24748 | 12.53647 | 15472 ft | 356 kts | 289° |
| 2026-05-07 10:17 | 51.25416 | 12.49886 | 14960 ft | 351 kts | 281° |
| 2026-05-07 10:18 | 51.25645 | 12.46058 | 14457 ft | 347 kts | 271° |
| 2026-05-07 10:18 | 51.25581 | 12.42250 | 13924 ft | 344 kts | 267° |
| 2026-05-07 10:18 | 51.25408 | 12.38442 | 13429 ft | 340 kts | 266° |
| 2026-05-07 10:18 | 51.25212 | 12.34736 | 12912 ft | 337 kts | 265° |
| 2026-05-07 10:19 | 51.25016 | 12.31056 | 12417 ft | 334 kts | 265° |
| 2026-05-07 10:19 | 51.24848 | 12.27379 | 11915 ft | 336 kts | 268° |
| 2026-05-07 10:19 | 51.24956 | 12.23631 | 11402 ft | 335 kts | 278° |
| 2026-05-07 10:19 | 51.25445 | 12.20065 | 10908 ft | 332 kts | 285° |
| 2026-05-07 10:20 | 51.26099 | 12.16575 | 10569 ft | 324 kts | 287° |
| 2026-05-07 10:20 | 51.26733 | 12.13221 | 10411 ft | 310 kts | 287° |
| 2026-05-07 10:20 | 51.27320 | 12.09988 | 10291 ft | 297 kts | 287° |
| 2026-05-07 10:20 | 51.27858 | 12.06883 | 10181 ft | 285 kts | 286° |
| 2026-05-07 10:21 | 51.28357 | 12.03896 | 10053 ft | 274 kts | 285° |
| 2026-05-07 10:21 | 51.28666 | 12.00935 | 9741 ft | 272 kts | 273° |
| 2026-05-07 10:21 | 51.28583 | 11.97925 | 9353 ft | 273 kts | 265° |
| 2026-05-07 10:21 | 51.28354 | 11.94933 | 8978 ft | 272 kts | 264° |
| 2026-05-07 10:22 | 51.28145 | 11.91947 | 8614 ft | 272 kts | 265° |
| 2026-05-07 10:22 | 51.27976 | 11.88964 | 8261 ft | 270 kts | 266° |
| 2026-05-07 10:22 | 51.27830 | 11.85988 | 7895 ft | 270 kts | 267° |
| 2026-05-07 10:22 | 51.27672 | 11.83019 | 7540 ft | 269 kts | 266° |
| 2026-05-07 10:23 | 51.27519 | 11.80063 | 7187 ft | 268 kts | 266° |
| 2026-05-07 10:23 | 51.27376 | 11.77101 | 6825 ft | 268 kts | 266° |
| 2026-05-07 10:23 | 51.27233 | 11.74166 | 6464 ft | 266 kts | 266° |
| 2026-05-07 10:23 | 51.27089 | 11.71200 | 6107 ft | 265 kts | 267° |
| 2026-05-07 10:24 | 51.27295 | 11.68378 | 5957 ft | 253 kts | 294° |
| 2026-05-07 10:24 | 51.28326 | 11.66191 | 5759 ft | 252 kts | 323° |
| 2026-05-07 10:24 | 51.29903 | 11.64880 | 5418 ft | 256 kts | 345° |
| 2026-05-07 10:24 | 51.31620 | 11.64483 | 5084 ft | 252 kts | 1° |
| 2026-05-07 10:25 | 51.33341 | 11.64810 | 4767 ft | 249 kts | 17° |
| 2026-05-07 10:25 | 51.34959 | 11.65722 | 4454 ft | 246 kts | 22° |
| 2026-05-07 10:25 | 51.36539 | 11.66816 | 4136 ft | 244 kts | 28° |
| 2026-05-07 10:25 | 51.37902 | 11.68376 | 3953 ft | 239 kts | 46° |
| 2026-05-07 10:26 | 51.38747 | 11.70589 | 3967 ft | 233 kts | 73° |
| 2026-05-07 10:26 | 51.38969 | 11.73120 | 3975 ft | 230 kts | 87° |
| 2026-05-07 10:26 | 51.39018 | 11.75635 | 3959 ft | 223 kts | 85° |
| 2026-05-07 10:26 | 51.39116 | 11.78063 | 3961 ft | 215 kts | 83° |
| 2026-05-07 10:27 | 51.39282 | 11.80397 | 3967 ft | 207 kts | 81° |
| 2026-05-07 10:27 | 51.39416 | 11.82656 | 3960 ft | 207 kts | 86° |
| 2026-05-07 10:27 | 51.39437 | 11.84986 | 3968 ft | 210 kts | 87° |
| 2026-05-07 10:27 | 51.39516 | 11.87319 | 3924 ft | 211 kts | 83° |
| 2026-05-07 10:28 | 51.39657 | 11.89652 | 3775 ft | 209 kts | 83° |
| 2026-05-07 10:28 | 51.39781 | 11.91933 | 3610 ft | 203 kts | 84° |
| 2026-05-07 10:28 | 51.39886 | 11.94152 | 3392 ft | 201 kts | 83° |
| 2026-05-07 10:28 | 51.39995 | 11.96364 | 3200 ft | 197 kts | 83° |
| 2026-05-07 10:29 | 51.40101 | 11.98522 | 3032 ft | 191 kts | 83° |
| 2026-05-07 10:29 | 51.40202 | 12.00586 | 2924 ft | 182 kts | 83° |
| 2026-05-07 10:29 | 51.40301 | 12.02587 | 2697 ft | 181 kts | 83° |
| 2026-05-07 10:30 | 51.40492 | 12.06533 | 2179 ft | 170 kts | 83° |
| 2026-05-07 10:30 | 51.40580 | 12.08340 | 1961 ft | 158 kts | 83° |
| 2026-05-07 10:30 | 51.40660 | 12.09999 | 1817 ft | 141 kts | 82° |
| 2026-05-07 10:30 | 51.40737 | 12.11580 | 1567 ft | 141 kts | 82° |
| 2026-05-07 10:31 | 51.40810 | 12.13123 | 1377 ft | 140 kts | 82° |
| 2026-05-07 10:31 | 51.40886 | 12.14697 | 1176 ft | 141 kts | 82° |
| 2026-05-07 10:31 | 51.40953 | 12.16242 | 993 ft | 141 kts | 83° |
| 2026-05-07 10:31 | 51.41008 | 12.17802 | 775 ft | 139 kts | 84° |
| 2026-05-07 10:32 | 51.41076 | 12.19360 | 595 ft | 139 kts | 88° |
| 2026-05-07 10:32 | 51.41157 | 12.20870 | 442 ft | 135 kts | 92° |
| 2026-05-07 10:32 | 51.41227 | 12.22134 | 454 ft | 76 kts | 82° |
| 2026-05-07 10:32 | 51.41267 | 12.22740 | 465 ft | 44 kts | 85° |
| 2026-05-07 10:33 | 51.41283 | 12.23100 | 467 ft | 28 kts | 83° |
| 2026-05-07 10:33 | 51.41357 | 12.23249 | 465 ft | 16 kts | 360° |
| 2026-05-07 10:33 | 51.41474 | 12.23239 | 463 ft | 17 kts | 356° |
| 2026-05-07 10:33 | 51.41598 | 12.23194 | 459 ft | 19 kts | 313° |
| 2026-05-07 10:34 | 51.41642 | 12.22981 | 457 ft | 20 kts | 287° |
| 2026-05-07 10:34 | 51.41682 | 12.22749 | 454 ft | 22 kts | 284° |
| 2026-05-07 10:34 | 51.41724 | 12.22500 | 451 ft | 23 kts | 285° |
| 2026-05-07 10:34 | 51.41766 | 12.22255 | 446 ft | 15 kts | 285° |
| 2026-05-07 10:35 | 51.41805 | 12.22153 | 442 ft | 9 kts | 359° |
| 2026-05-07 10:35 | 51.41859 | 12.22174 | 442 ft | 6 kts | 15° |
| 2026-05-07 10:35 | 51.41878 | 12.22183 | 442 ft | 0 kts | 15° |